createdAt,value
2019-04-05T00:00:26.751Z,98139.66
2019-04-05T00:03:00.942Z,98134.78
2019-04-05T00:05:37.432Z,98144.52
2019-04-05T00:08:11.482Z,98149.35
2019-04-05T00:10:45.586Z,98145.05
2019-04-05T00:13:20.198Z,98146.95
2019-04-05T00:15:54.566Z,98138.84
2019-04-05T00:18:29.178Z,98142.61
2019-04-05T00:21:03.170Z,98146.39
2019-04-05T00:23:38.002Z,98161.53
2019-04-05T00:26:12.214Z,98161.52
2019-04-05T00:28:45.967Z,98164.72
2019-04-05T00:31:19.920Z,98172.56
2019-04-05T00:33:53.842Z,98172.91
2019-04-05T00:36:28.150Z,98179.87
2019-04-05T00:39:02.305Z,98184.78
2019-04-05T00:41:37.190Z,98189.66
2019-04-05T00:44:11.041Z,98189.41
2019-04-05T00:46:48.116Z,98196.43
2019-04-05T00:49:22.908Z,98199.92
2019-04-05T00:51:57.241Z,98207.44
2019-04-05T00:54:32.116Z,98210.44
2019-04-05T00:57:06.996Z,98204.19
2019-04-05T00:59:42.633Z,98209.91
2019-04-05T01:02:16.398Z,98214.47
2019-04-05T01:04:50.292Z,98210.43
2019-04-05T01:07:23.969Z,98217.21
2019-04-05T01:09:57.604Z,98217.16
2019-04-05T01:12:32.982Z,98210.94
2019-04-05T01:15:09.428Z,98211.94
2019-04-05T01:17:45.776Z,98217.44
2019-04-05T01:20:43.744Z,98215.11
2019-04-05T01:23:19.450Z,98215.27
2019-04-05T01:25:59.421Z,98217.70
2019-04-05T01:28:53.949Z,98222.58
2019-04-05T01:31:32.043Z,98229.15
2019-04-05T01:34:06.862Z,98230.63
2019-04-05T01:36:41.551Z,98228.44
2019-04-05T01:39:25.232Z,98228.72
2019-04-05T01:42:03.952Z,98228.16
2019-04-05T01:44:39.148Z,98234.63
2019-04-05T01:47:14.151Z,98227.63
2019-04-05T01:49:49.115Z,98227.63
2019-04-05T01:52:24.400Z,98231.02
2019-04-05T01:54:59.796Z,98230.50
2019-04-05T01:57:36.903Z,98231.08
2019-04-05T02:00:15.154Z,98237.66
2019-04-05T02:02:49.788Z,98237.36
2019-04-05T02:05:24.208Z,98238.36
2019-04-05T02:07:58.277Z,98239.48
2019-04-05T02:10:32.613Z,98237.55
2019-04-05T02:13:06.706Z,98241.86
2019-04-05T02:15:41.079Z,98242.06
2019-04-05T02:18:15.109Z,98246.75
2019-04-05T02:20:49.649Z,98245.57
2019-04-05T02:23:25.131Z,98241.40
2019-04-05T02:25:59.559Z,98244.16
2019-04-05T02:28:34.365Z,98239.38
2019-04-05T02:31:08.266Z,98239.27
2019-04-05T02:33:42.543Z,98233.11
2019-04-05T02:36:16.985Z,98244.08
2019-04-05T02:38:52.205Z,98241.14
2019-04-05T02:41:27.971Z,98237.89
2019-04-05T02:44:03.027Z,98237.23
2019-04-05T02:46:37.333Z,98234.67
2019-04-05T02:49:12.816Z,98223.46
2019-04-05T02:51:49.945Z,98224.47
2019-04-05T02:54:24.815Z,98225.57
2019-04-05T02:57:00.161Z,98218.45
2019-04-05T02:59:40.329Z,98225.70
2019-04-05T03:02:17.343Z,98233.03
2019-04-05T03:04:54.652Z,98220.55
2019-04-05T03:07:32.073Z,98221.77
2019-04-05T03:10:09.020Z,98219.11
2019-04-05T03:12:50.616Z,98220.03
2019-04-05T03:15:24.431Z,98215.59
2019-04-05T03:17:58.375Z,98216.86
2019-04-05T03:20:33.457Z,98217.27
2019-04-05T03:23:08.331Z,98227.54
2019-04-05T03:25:42.429Z,98223.00
2019-04-05T03:28:19.163Z,98217.75
2019-04-05T03:30:55.279Z,98229.36
2019-04-05T03:33:30.997Z,98226.70
2019-04-05T03:36:06.456Z,98219.61
2019-04-05T03:38:40.865Z,98231.98
2019-04-05T03:41:16.068Z,98227.02
2019-04-05T03:43:51.431Z,98235.05
2019-04-05T03:46:26.861Z,98231.17
2019-04-05T03:49:03.432Z,98226.25
2019-04-05T03:51:38.054Z,98227.01
2019-04-05T03:54:12.340Z,98229.31
2019-04-05T03:56:47.052Z,98226.84
2019-04-05T03:59:22.542Z,98221.92
2019-04-05T04:02:00.843Z,98218.96
2019-04-05T04:04:35.972Z,98209.95
2019-04-05T04:07:11.328Z,98218.95
2019-04-05T04:09:49.064Z,98220.03
2019-04-05T04:12:26.936Z,98221.96
2019-04-05T04:15:01.644Z,98216.48
2019-04-05T04:17:36.843Z,98216.48
2019-04-05T04:20:13.639Z,98212.42
2019-04-05T04:22:48.633Z,98216.91
2019-04-05T04:25:22.946Z,98222.16
2019-04-05T04:27:57.065Z,98234.96
2019-04-05T04:30:32.404Z,98225.48
2019-04-05T04:33:07.686Z,98223.15
2019-04-05T04:35:42.117Z,98226.35
2019-04-05T04:38:18.811Z,98232.52
2019-04-05T04:40:54.442Z,98222.64
2019-04-05T04:43:32.346Z,98219.69
2019-04-05T04:46:05.008Z,98214.11
2019-04-05T04:48:41.018Z,98206.84
2019-04-05T04:51:16.146Z,98200.09
2019-04-05T04:53:51.668Z,98198.02
2019-04-05T04:56:29.072Z,98206.83
2019-04-05T04:59:03.115Z,98205.45
2019-04-05T05:01:37.343Z,98211.88
2019-04-05T05:04:12.051Z,98197.48
2019-04-05T05:06:46.272Z,98187.83
2019-04-05T05:09:21.964Z,98197.44
2019-04-05T05:11:55.979Z,98195.33
2019-04-05T05:14:30.397Z,98193.61
2019-04-05T05:17:06.348Z,98195.25
2019-04-05T05:19:40.368Z,98198.31
2019-04-05T05:22:14.162Z,98186.69
2019-04-05T05:24:48.398Z,98199.02
2019-04-05T05:27:22.459Z,98187.68
2019-04-05T05:29:57.714Z,98192.02
2019-04-05T05:32:33.001Z,98196.39
2019-04-05T05:35:13.241Z,98189.00
2019-04-05T05:37:48.927Z,98194.11
2019-04-05T05:40:34.627Z,98194.47
2019-04-05T05:43:02.702Z,98192.27
2019-04-05T05:45:37.103Z,98202.38
2019-04-05T05:48:13.494Z,98187.43
2019-04-05T05:50:48.428Z,98193.75
2019-04-05T05:53:22.696Z,98186.08
2019-04-05T05:56:02.070Z,98191.23
2019-04-05T05:58:55.321Z,98187.59
2019-04-05T06:01:31.060Z,98174.77
2019-04-05T06:04:14.405Z,98182.86
2019-04-05T06:06:48.510Z,98179.78
2019-04-05T06:09:22.369Z,98182.47
2019-04-05T06:11:56.057Z,98180.70
2019-04-05T06:14:30.040Z,98178.50
2019-04-05T06:17:07.327Z,98174.15
2019-04-05T06:19:41.861Z,98180.69
2019-04-05T06:22:15.558Z,98172.59
2019-04-05T06:24:49.356Z,98174.56
2019-04-05T06:27:24.078Z,98164.77
2019-04-05T06:29:57.971Z,98180.56
2019-04-05T06:32:32.212Z,98169.88
2019-04-05T06:35:07.727Z,98163.98
2019-04-05T06:37:41.856Z,98181.09
2019-04-05T06:40:16.390Z,98165.28
2019-04-05T06:42:52.481Z,98176.41
2019-04-05T06:45:27.079Z,98171.65
2019-04-05T06:48:00.831Z,98168.42
2019-04-05T06:50:34.506Z,98168.14
2019-04-05T06:53:11.456Z,98185.45
2019-04-05T06:55:45.506Z,98172.23
2019-04-05T06:58:28.556Z,98163.73
2019-04-05T07:00:57.272Z,98166.21
2019-04-05T07:06:08.103Z,98174.04
2019-04-05T07:08:53.055Z,98170.66
2019-04-05T07:11:18.629Z,98172.05
2019-04-05T07:13:52.353Z,98181.79
2019-04-05T07:16:26.276Z,98181.72
2019-04-05T07:19:03.428Z,98176.79
2019-04-05T07:21:37.629Z,98189.24
2019-04-05T07:24:11.198Z,98177.11
2019-04-05T07:26:44.999Z,98180.77
2019-04-05T07:29:22.571Z,98175.05
2019-04-05T07:31:56.607Z,98176.62
2019-04-05T07:34:30.344Z,98179.07
2019-04-05T07:37:03.967Z,98184.15
2019-04-05T07:39:37.988Z,98185.61
2019-04-05T07:42:11.712Z,98191.45
2019-04-05T07:44:45.277Z,98193.80
2019-04-05T07:47:18.941Z,98196.26
2019-04-05T07:49:52.400Z,98193.19
2019-04-05T07:52:26.558Z,98195.36
2019-04-05T07:55:03.689Z,98187.08
2019-04-05T07:57:37.678Z,98183.67
2019-04-05T08:00:13.746Z,98191.91
2019-04-05T08:02:48.228Z,98194.52
2019-04-05T08:05:22.174Z,98197.67
2019-04-05T08:07:56.454Z,98196.19
2019-04-05T08:10:31.697Z,98194.66
2019-04-05T08:13:08.975Z,98199.22
2019-04-05T08:15:47.433Z,98200.50
2019-04-05T08:18:21.699Z,98207.23
2019-04-05T08:21:07.388Z,98220.93
2019-04-05T08:23:47.588Z,98214.38
2019-04-05T08:26:23.216Z,98212.39
2019-04-05T08:28:58.487Z,98210.11
2019-04-05T08:31:33.923Z,98212.38
2019-04-05T08:34:07.661Z,98226.72
2019-04-05T08:36:41.665Z,98219.64
2019-04-05T08:39:15.736Z,98219.81
2019-04-05T08:41:49.467Z,98220.19
2019-04-05T08:44:42.929Z,98219.13
2019-04-05T08:47:18.535Z,98223.18
2019-04-05T08:49:52.354Z,98220.53
2019-04-05T08:52:27.107Z,98229.16
2019-04-05T08:55:01.100Z,98231.67
2019-04-05T08:57:37.580Z,98233.95
2019-04-05T09:00:11.461Z,98237.91
2019-04-05T09:02:45.789Z,98250.59
2019-04-05T09:05:20.721Z,98258.22
2019-04-05T09:07:54.355Z,98254.68
2019-04-05T09:10:28.186Z,98258.09
2019-04-05T09:13:02.214Z,98259.67
2019-04-05T09:15:36.100Z,98266.20
2019-04-05T09:18:10.339Z,98265.23
2019-04-05T09:20:44.952Z,98266.27
2019-04-05T09:23:19.087Z,98271.68
2019-04-05T09:25:54.044Z,98275.09
2019-04-05T09:28:29.314Z,98275.38
2019-04-05T09:31:03.762Z,98275.84
2019-04-05T09:33:38.996Z,98280.43
2019-04-05T09:36:13.284Z,98280.28
2019-04-05T09:38:47.519Z,98279.19
2019-04-05T09:41:21.818Z,98289.11
2019-04-05T09:43:56.399Z,98285.58
2019-04-05T09:46:30.756Z,98292.08
2019-04-05T09:49:07.317Z,98297.84
2019-04-05T09:51:43.588Z,98298.08
2019-04-05T09:54:18.851Z,98303.92
2019-04-05T09:56:56.789Z,98304.91
2019-04-05T09:59:30.902Z,98307.20
2019-04-05T10:02:06.288Z,98311.69
2019-04-05T10:04:39.999Z,98315.90
2019-04-05T10:07:14.176Z,98321.91
2019-04-05T10:09:50.437Z,98318.22
2019-04-05T10:12:25.294Z,98327.07
2019-04-05T10:15:10.514Z,98332.38
2019-04-05T10:17:45.197Z,98335.00
2019-04-05T10:20:22.583Z,98330.92
2019-04-05T10:22:56.686Z,98337.55
2019-04-05T10:25:30.409Z,98341.36
2019-04-05T10:28:04.155Z,98337.36
2019-04-05T10:30:40.229Z,98341.92
2019-04-05T10:33:14.748Z,98342.73
2019-04-05T10:35:49.117Z,98340.45
2019-04-05T10:38:23.301Z,98347.17
2019-04-05T10:40:57.019Z,98347.06
2019-04-05T10:43:30.803Z,98350.59
2019-04-05T10:46:05.234Z,98366.69
2019-04-05T10:48:39.390Z,98360.86
2019-04-05T10:51:13.245Z,98367.22
2019-04-05T10:53:48.568Z,98374.66
2019-04-05T10:56:22.771Z,98373.37
2019-04-05T10:58:56.564Z,98382.44
2019-04-05T11:01:31.572Z,98386.83
2019-04-05T11:04:07.025Z,98384.14
2019-04-05T11:06:41.326Z,98395.75
2019-04-05T11:09:15.640Z,98394.98
2019-04-05T11:11:50.939Z,98392.51
2019-04-05T11:14:25.854Z,98395.25
2019-04-05T11:16:59.716Z,98402.12
2019-04-05T11:19:36.229Z,98407.50
2019-04-05T11:22:08.217Z,98405.64
2019-04-05T11:24:43.394Z,98412.99
2019-04-05T11:27:17.345Z,98410.54
2019-04-05T11:29:51.581Z,98415.64
2019-04-05T11:32:25.788Z,98414.98
2019-04-05T11:34:59.952Z,98418.42
2019-04-05T11:37:33.874Z,98423.13
2019-04-05T11:40:11.693Z,98423.89
2019-04-05T11:42:48.433Z,98431.52
2019-04-05T11:45:22.371Z,98420.98
2019-04-05T11:47:58.549Z,98430.95
2019-04-05T11:50:35.110Z,98438.34
2019-04-05T11:53:08.925Z,98435.56
2019-04-05T11:55:42.987Z,98443.07
2019-04-05T11:58:18.664Z,98431.37
2019-04-05T12:00:52.670Z,98446.34
2019-04-05T12:03:26.994Z,98446.59
2019-04-05T12:06:01.437Z,98446.56
2019-04-05T12:08:35.632Z,98448.77
2019-04-05T12:11:09.386Z,98452.02
2019-04-05T12:13:43.772Z,98456.38
2019-04-05T12:16:19.533Z,98450.44
2019-04-05T12:18:53.124Z,98452.66
2019-04-05T12:21:28.130Z,98445.04
2019-04-05T12:24:04.779Z,98449.11
2019-04-05T12:26:39.286Z,98446.38
2019-04-05T12:29:13.013Z,98442.11
2019-04-05T12:45:15.503Z,98451.08
2019-04-05T12:47:51.624Z,98458.66
2019-04-05T12:50:25.563Z,98457.83
2019-04-05T12:52:59.888Z,98458.12
2019-04-05T12:55:34.863Z,98459.20
2019-04-05T12:58:10.801Z,98456.73
2019-04-05T13:00:47.477Z,98459.41
2019-04-05T13:03:21.772Z,98460.79
2019-04-05T13:05:57.884Z,98457.02
2019-04-05T13:08:32.690Z,98456.43
2019-04-05T13:11:08.751Z,98459.13
2019-04-05T13:13:43.836Z,98456.41
2019-04-05T13:16:19.276Z,98450.95
2019-04-05T13:18:55.328Z,98449.39
2019-04-05T13:21:32.227Z,98450.47
2019-04-05T13:24:09.438Z,98450.69
2019-04-05T13:26:42.739Z,98446.85
2019-04-05T13:29:19.662Z,98452.23
2019-04-05T13:31:55.491Z,98453.69
2019-04-05T13:34:31.171Z,98448.53
2019-04-05T13:37:05.331Z,98451.23
2019-04-05T13:39:41.218Z,98450.88
2019-04-05T13:42:15.515Z,98452.32
2019-04-05T13:44:49.994Z,98452.02
2019-04-05T13:47:24.156Z,98445.17
2019-04-05T13:50:00.356Z,98450.38
2019-04-05T13:52:34.888Z,98451.47
2019-04-05T13:55:11.297Z,98456.08
2019-04-05T13:57:46.665Z,98456.62
2019-04-05T14:00:23.303Z,98453.09
2019-04-05T14:02:57.636Z,98454.98
2019-04-05T14:05:31.569Z,98454.41
2019-04-05T14:08:10.319Z,98456.59
2019-04-05T14:10:42.865Z,98452.75
2019-04-05T14:13:17.855Z,98454.72
2019-04-05T14:15:52.043Z,98456.88
2019-04-05T14:18:26.081Z,98455.52
2019-04-05T14:21:00.396Z,98461.63
2019-04-05T14:23:34.738Z,98453.73
2019-04-05T14:26:08.737Z,98450.44
2019-04-05T14:28:48.616Z,98443.80
2019-04-05T14:31:32.406Z,98441.86
2019-04-05T14:34:11.001Z,98443.63
2019-04-05T14:36:46.248Z,98440.72
2019-04-05T14:39:20.403Z,98435.50
2019-04-05T14:42:08.761Z,98441.34
2019-04-05T14:44:33.915Z,98441.55
2019-04-05T14:47:08.204Z,98441.70
2019-04-05T14:49:43.453Z,98441.95
2019-04-05T14:52:17.981Z,98441.62
2019-04-05T14:54:52.081Z,98439.37
2019-04-05T14:57:45.211Z,98439.36
2019-04-05T15:00:19.936Z,98434.52
2019-04-05T15:02:55.508Z,98427.73
2019-04-05T15:05:30.516Z,98424.16
2019-04-05T15:08:06.561Z,98421.85
2019-04-05T15:10:42.312Z,98415.86
2019-04-05T15:13:16.472Z,98418.79
2019-04-05T15:18:29.269Z,98422.22
2019-04-05T15:21:05.494Z,98412.96
2019-04-05T15:23:41.179Z,98417.38
2019-04-05T15:26:14.009Z,98420.75
2019-04-05T15:28:48.165Z,98421.53
2019-04-05T15:31:25.750Z,98422.16
2019-04-05T15:33:57.810Z,98423.51
2019-04-05T15:36:33.838Z,98415.91
2019-04-05T15:39:09.492Z,98427.78
2019-04-05T15:41:43.347Z,98422.94
2019-04-05T15:44:17.228Z,98425.58
2019-04-05T15:46:52.973Z,98422.77
2019-04-05T15:49:26.051Z,98421.66
2019-04-05T15:51:59.629Z,98425.12
2019-04-05T15:54:33.812Z,98422.87
2019-04-05T15:57:08.820Z,98421.42
2019-04-05T15:59:45.670Z,98424.93
2019-04-05T16:02:19.404Z,98424.55
2019-04-05T16:04:52.834Z,98419.53
2019-04-05T16:07:26.630Z,98411.48
2019-04-05T16:10:00.274Z,98419.12
2019-04-05T16:12:33.893Z,98417.66
2019-04-05T16:15:08.527Z,98413.57
2019-04-05T16:17:43.604Z,98406.67
2019-04-05T16:20:17.901Z,98408.87
2019-04-05T16:22:51.661Z,98409.23
2019-04-05T16:25:37.894Z,98411.12
2019-04-05T16:28:11.579Z,98409.06
2019-04-05T16:30:48.591Z,98414.06
2019-04-05T16:33:22.297Z,98407.69
2019-04-05T16:35:55.807Z,98412.66
2019-04-05T16:38:31.791Z,98408.13
2019-04-05T16:41:05.463Z,98411.06
2019-04-05T16:43:39.174Z,98409.07
2019-04-05T16:46:14.041Z,98409.85
2019-04-05T16:48:47.793Z,98410.25
2019-04-05T16:51:21.794Z,98413.04
2019-04-05T16:53:56.828Z,98411.70
2019-04-05T16:56:30.650Z,98413.58
2019-04-05T16:59:04.917Z,98417.45
2019-04-05T17:01:39.429Z,98415.02
2019-04-05T17:04:12.838Z,98409.06
2019-04-05T17:06:46.863Z,98413.52
2019-04-05T17:09:21.005Z,98411.88
2019-04-05T17:11:56.776Z,98407.45
2019-04-05T17:14:30.842Z,98407.42
2019-04-05T17:17:06.609Z,98404.00
2019-04-05T17:19:41.344Z,98397.65
2019-04-05T17:22:15.463Z,98395.87
2019-04-05T17:24:49.678Z,98400.34
2019-04-05T17:27:23.969Z,98402.80
2019-04-05T17:29:58.867Z,98397.02
2019-04-05T17:32:33.447Z,98402.27
2019-04-05T17:35:08.486Z,98402.18
2019-04-05T17:37:42.249Z,98402.13
2019-04-05T17:40:15.786Z,98406.27
2019-04-05T17:42:50.298Z,98395.34
2019-04-05T17:45:24.593Z,98398.41
2019-04-05T17:47:58.723Z,98394.08
2019-04-05T17:50:37.231Z,98398.56
2019-04-05T17:53:13.257Z,98391.34
2019-04-05T17:55:46.170Z,98392.45
2019-04-05T17:58:20.773Z,98387.50
2019-04-05T18:00:56.213Z,98381.54
2019-04-05T18:03:29.755Z,98384.27
2019-04-05T18:06:03.244Z,98385.50
2019-04-05T18:08:37.215Z,98385.98
2019-04-05T18:11:12.342Z,98385.74
2019-04-05T18:13:45.892Z,98376.80
2019-04-05T18:16:20.918Z,98378.09
2019-04-05T18:18:57.117Z,98380.17
2019-04-05T18:21:30.890Z,98379.31
2019-04-05T18:24:04.922Z,98375.84
2019-04-05T18:26:39.168Z,98359.38
2019-04-05T18:29:13.054Z,98368.77
2019-04-05T18:31:46.975Z,98374.92
2019-04-05T18:34:20.896Z,98366.30
2019-04-05T18:36:54.941Z,98370.66
2019-04-05T18:39:29.855Z,98370.84
2019-04-05T18:42:04.346Z,98364.05
2019-04-05T18:44:38.126Z,98355.33
2019-04-05T18:47:12.759Z,98364.86
2019-04-05T18:49:46.578Z,98349.70
2019-04-05T18:52:21.662Z,98345.78
2019-04-05T18:54:56.090Z,98352.00
2019-04-05T18:57:30.485Z,98345.09
2019-04-05T19:00:06.289Z,98345.14
2019-04-05T19:02:42.395Z,98335.44
2019-04-05T19:05:17.487Z,98335.57
2019-04-05T19:07:52.391Z,98341.59
2019-04-05T19:10:37.019Z,98332.24
2019-04-05T19:13:03.087Z,98324.22
2019-04-05T19:15:37.275Z,98325.20
2019-04-05T19:18:11.113Z,98316.31
2019-04-05T19:20:44.826Z,98316.31
2019-04-05T19:23:18.209Z,98313.52
2019-04-05T19:25:53.771Z,98312.16
2019-04-05T19:28:28.143Z,98309.31
2019-04-05T19:49:09.285Z,98279.77
2019-04-05T19:51:42.857Z,98281.82
2019-04-05T19:54:16.091Z,98277.55
2019-04-05T19:56:49.914Z,98273.80
2019-04-05T19:59:23.436Z,98277.45
2019-04-05T20:01:57.600Z,98262.56
2019-04-05T20:04:31.090Z,98265.16
2019-04-05T20:07:04.566Z,98247.47
2019-04-05T20:09:38.634Z,98243.66
2019-04-05T20:12:12.119Z,98239.41
2019-04-05T20:14:46.212Z,98228.92
2019-04-05T20:17:20.205Z,98233.30
2019-04-05T20:19:55.331Z,98215.53
2019-04-05T20:22:29.164Z,98209.13
2019-04-05T20:25:04.537Z,98210.16
2019-04-05T20:27:38.341Z,98210.48
2019-04-05T20:30:12.653Z,98207.25
2019-04-05T20:32:47.639Z,98199.24
2019-04-05T20:35:21.519Z,98197.33
2019-04-05T20:37:55.243Z,98196.89
2019-04-05T20:40:29.250Z,98192.15
2019-04-05T20:43:04.467Z,98191.62
2019-04-05T20:45:39.541Z,98187.26
2019-04-05T20:48:13.259Z,98190.69
2019-04-05T20:50:46.749Z,98183.14
2019-04-05T20:53:20.308Z,98190.08
2019-04-05T20:55:54.159Z,98190.98
2019-04-05T20:58:29.484Z,98188.20
2019-04-05T21:01:03.151Z,98182.58
2019-04-05T21:03:36.942Z,98181.27
2019-04-05T21:06:10.709Z,98184.06
2019-04-05T21:08:44.377Z,98185.20
2019-04-05T21:11:17.794Z,98195.67
2019-04-05T21:13:51.745Z,98195.67
2019-04-05T21:16:25.482Z,98186.81
2019-04-05T21:18:59.105Z,98185.74
2019-04-05T21:21:32.857Z,98191.10
2019-04-05T21:24:06.838Z,98180.80
2019-04-05T21:26:40.684Z,98182.57
2019-04-05T21:29:14.116Z,98179.06
2019-04-05T21:31:48.438Z,98180.49
2019-04-05T21:34:23.600Z,98178.66
2019-04-05T21:36:57.991Z,98183.26
2019-04-05T21:39:31.706Z,98183.36
2019-04-05T21:42:05.431Z,98190.84
2019-04-05T21:44:38.991Z,98191.45
2019-04-05T21:47:12.563Z,98184.16
2019-04-05T21:49:47.604Z,98186.39
2019-04-05T21:52:21.490Z,98186.41
2019-04-05T21:54:56.816Z,98187.75
2019-04-05T21:57:30.785Z,98192.09
2019-04-05T22:00:04.482Z,98188.33
2019-04-05T22:02:38.175Z,98197.22
2019-04-05T22:05:11.987Z,98196.66
2019-04-05T22:07:45.739Z,98198.88
2019-04-05T22:10:19.668Z,98202.12
2019-04-05T22:12:53.493Z,98213.23
2019-04-05T22:15:27.450Z,98207.30
2019-04-05T22:18:01.148Z,98209.45
2019-04-05T22:20:34.913Z,98210.91
2019-04-05T22:23:08.539Z,98213.31
2019-04-05T22:25:42.320Z,98217.16
2019-04-05T22:28:16.488Z,98214.69
2019-04-05T22:30:50.509Z,98214.72
2019-04-05T22:33:24.348Z,98210.97
2019-04-05T22:36:00.016Z,98217.52
2019-04-05T22:38:33.725Z,98217.52
2019-04-05T22:41:07.423Z,98219.64
2019-04-05T22:43:41.622Z,98216.51
2019-04-05T22:46:15.205Z,98218.83
2019-04-05T22:48:49.128Z,98221.39
2019-04-05T22:51:23.089Z,98228.34
2019-04-05T22:53:56.486Z,98218.58
2019-04-05T22:56:31.396Z,98215.16
2019-04-05T22:59:05.262Z,98211.49
2019-04-05T23:01:38.680Z,98209.11
2019-04-05T23:04:12.787Z,98206.72
2019-04-05T23:06:46.404Z,98216.73
2019-04-05T23:09:20.146Z,98220.21
2019-04-05T23:11:54.976Z,98222.44
2019-04-05T23:14:28.908Z,98231.97
2019-04-05T23:17:02.367Z,98230.02
2019-04-05T23:19:37.840Z,98234.72
2019-04-05T23:22:11.611Z,98228.81
2019-04-05T23:24:45.207Z,98226.07
2019-04-05T23:27:18.994Z,98227.46
2019-04-05T23:29:54.249Z,98227.75
2019-04-05T23:32:27.877Z,98235.01
2019-04-05T23:35:04.682Z,98230.69
2019-04-05T23:37:43.036Z,98231.94
2019-04-05T23:40:20.270Z,98227.83
2019-04-05T23:42:55.635Z,98221.29
2019-04-05T23:45:32.073Z,98219.13
2019-04-05T23:48:07.661Z,98220.81
2019-04-05T23:50:43.261Z,98225.39
2019-04-05T23:53:18.979Z,98229.55
2019-04-05T23:55:55.253Z,98224.64
2019-04-05T23:58:30.275Z,98231.48
